Time;durP1;ratioP1;P1;durP2;ratioP2;P2;SDS_P1;SDS_P2;PMS_P1;PMS_P2;Temp;Humidity;BMP_temperature;BMP_pressure;BME280_temperature;BME280_humidity;BME280_pressure;Samples;Min_cycle;Max_cycle;Signal;HPM_P1;HPM_P2
2022/10/29 00:02:12;;;;;;;28.60;13.95;;;;;;;9.74;61.91;96286.75;5023039;28;20098;-75
2022/10/29 00:04:37;;;;;;;27.70;13.55;;;;;;;10.01;61.81;96328.25;5038694;28;20127;-74
2022/10/29 00:07:02;;;;;;;29.15;12.52;;;;;;;10.52;62.38;96416.56;5029154;28;20681;-74
2022/10/29 00:09:28;;;;;;;34.50;13.80;;;;;;;10.48;62.02;96406.66;5009514;28;20063;-75
2022/10/29 00:11:53;;;;;;;30.77;14.57;;;;;;;10.36;62.74;96412.88;5031469;28;20052;-75
2022/10/29 00:14:20;;;;;;;33.70;13.13;;;;;;;9.97;62.85;96361.59;5038506;28;20045;-75
2022/10/29 00:16:45;;;;;;;31.80;13.45;;;;;;;9.96;62.85;96345.94;5023565;28;20040;-75
2022/10/29 00:19:10;;;;;;;30.27;13.02;;;;;;;9.94;63.51;96375.31;5038367;28;20075;-75
2022/10/29 00:21:36;;;;;;;27.20;12.95;;;;;;;10.16;63.37;96406.41;5039126;28;20060;-74
2022/10/29 00:24:02;;;;;;;32.33;14.07;;;;;;;10.17;63.27;96398.25;5038356;28;20072;-74
2022/10/29 00:26:29;;;;;;;26.50;11.98;;;;;;;9.77;63.04;96332.09;5029005;28;20037;-75
2022/10/29 00:28:55;;;;;;;35.08;12.45;;;;;;;10.26;63.34;96407.41;5021953;28;20045;-75
2022/10/29 00:31:23;;;;;;;24.52;12.07;;;;;;;9.70;63.85;96323.50;5010143;28;20068;-74
2022/10/29 00:33:49;;;;;;;23.60;11.73;;;;;;;10.05;63.46;96365.69;5026872;28;20045;-74
2022/10/29 00:45:05;;;;;;;30.45;12.45;;;;;;;9.43;64.83;96347.16;5095538;27;20351;-73
2022/10/29 00:47:35;;;;;;;32.30;14.00;;;;;;;9.84;64.71;96401.63;5095897;28;20055;-75
2022/10/29 00:50:21;;;;;;;31.35;13.02;;;;;;;9.94;64.55;96393.84;5095154;28;20490;-74
2022/10/29 00:52:49;;;;;;;30.95;15.80;;;;;;;10.05;64.43;96397.50;5095223;28;20520;-75
2022/10/29 00:55:16;;;;;;;34.88;14.50;;;;;;;10.10;64.25;96394.09;5095569;28;20043;-75
2022/10/29 00:57:48;;;;;;;25.73;13.85;;;;;;;9.91;64.34;96351.16;5095370;28;20405;-75
2022/10/29 01:00:16;;;;;;;28.10;13.05;;;;;;;10.14;63.77;96390.75;5093952;28;20035;-74
2022/10/29 01:02:43;;;;;;;27.40;12.55;;;;;;;10.17;63.26;96392.94;5094060;28;20031;-75
2022/10/29 01:05:11;;;;;;;35.15;11.65;;;;;;;9.91;62.95;96353.81;5093653;28;20555;-74
2022/10/29 01:07:36;;;;;;;25.95;11.68;;;;;;;9.74;63.15;96329.13;5095442;28;20042;-75
2022/10/29 01:10:02;;;;;;;30.50;12.18;;;;;;;9.85;63.21;96339.66;5093467;28;20475;-75
2022/10/29 01:12:59;;;;;;;22.30;12.02;;;;;;;10.12;63.22;96381.44;5095742;28;20488;-75
2022/10/29 01:15:36;;;;;;;30.63;11.88;;;;;;;9.82;63.44;96334.84;5095536;28;20785;-74
2022/10/29 01:18:10;;;;;;;27.45;13.20;;;;;;;10.05;64.06;96373.63;5094765;28;20040;-75
2022/10/29 01:21:02;;;;;;;28.98;12.93;;;;;;;9.86;63.32;96351.03;5092294;28;20028;-75
2022/10/29 01:23:36;;;;;;;27.85;12.25;;;;;;;10.00;63.48;96360.28;5094703;28;20072;-75
2022/10/29 01:26:38;;;;;;;26.55;12.50;;;;;;;10.01;64.05;96373.31;5098575;28;20050;-74
2022/10/29 01:29:41;;;;;;;23.17;12.05;;;;;;;10.00;63.32;96365.59;5115040;28;20032;-75
2022/10/29 01:32:14;;;;;;;26.40;12.20;;;;;;;9.58;63.57;96302.41;5105323;27;20559;-75
2022/10/29 01:34:54;;;;;;;31.48;12.98;;;;;;;9.75;63.75;96326.25;5104188;28;20050;-74
2022/10/29 01:37:31;;;;;;;26.98;11.57;;;;;;;9.93;64.19;96359.66;5110685;27;20037;-74
2022/10/29 01:40:24;;;;;;;26.50;12.38;;;;;;;10.10;63.81;96379.00;5134512;27;20462;-75
2022/10/29 01:43:05;;;;;;;28.83;13.13;;;;;;;9.90;63.88;96339.75;5108165;28;20043;-75
2022/10/29 01:45:42;;;;;;;27.20;12.20;;;;;;;10.05;63.73;96363.84;5095835;28;20027;-75
2022/10/29 01:48:24;;;;;;;29.20;13.30;;;;;;;9.97;63.38;96356.28;5114384;28;20770;-77
2022/10/29 01:50:56;;;;;;;30.40;13.63;;;;;;;10.02;63.75;96361.66;5095450;28;20032;-77
2022/10/29 01:53:22;;;;;;;26.73;12.15;;;;;;;10.03;63.45;96362.47;5114076;28;20047;-78
2022/10/29 01:55:47;;;;;;;31.02;13.98;;;;;;;9.75;63.39;96314.84;5104034;28;20050;-75
2022/10/29 01:58:13;;;;;;;22.02;12.02;;;;;;;9.55;63.34;96289.63;5081881;28;20039;-75
2022/10/29 02:00:48;;;;;;;22.05;11.40;;;;;;;9.96;63.13;96359.19;5100594;28;20066;-75
2022/10/29 02:03:56;;;;;;;26.67;13.32;;;;;;;9.92;63.53;96350.88;5100343;28;20478;-76
2022/10/29 02:06:27;;;;;;;28.67;12.80;;;;;;;9.88;63.80;96349.78;5092490;27;20580;-74
2022/10/29 02:09:12;;;;;;;32.22;12.82;;;;;;;9.76;64.18;96356.19;5107923;27;20418;-74
2022/10/29 02:11:48;;;;;;;29.33;14.35;;;;;;;9.82;63.71;96352.59;5082090;28;20138;-74
2022/10/29 02:14:38;;;;;;;26.52;13.63;;;;;;;9.51;64.00;96309.69;5081507;28;20509;-75
2022/10/29 02:17:05;;;;;;;28.77;11.95;;;;;;;9.59;63.92;96325.19;5099533;28;20047;-74
2022/10/29 02:19:31;;;;;;;24.02;13.13;;;;;;;9.31;63.76;96282.84;5099933;28;20031;-74
2022/10/29 02:21:57;;;;;;;26.17;12.30;;;;;;;9.45;64.18;96305.34;5081568;28;20067;-75
2022/10/29 02:24:23;;;;;;;31.20;13.20;;;;;;;9.60;63.72;96326.81;5099583;28;20176;-75
2022/10/29 02:26:49;;;;;;;25.88;12.73;;;;;;;9.61;64.19;96322.31;5081410;28;20038;-75
2022/10/29 02:29:14;;;;;;;29.77;13.63;;;;;;;9.75;63.32;96355.41;5099477;28;20043;-75
2022/10/29 02:31:40;;;;;;;29.67;13.85;;;;;;;9.40;63.63;96304.44;5099894;28;20027;-74
2022/10/29 02:34:05;;;;;;;32.13;12.57;;;;;;;9.24;64.15;96267.13;5100222;28;20043;-75
2022/10/29 02:36:31;;;;;;;29.08;13.45;;;;;;;9.73;63.84;96346.88;5100633;28;20036;-75
2022/10/29 02:38:56;;;;;;;30.17;14.48;;;;;;;9.62;64.14;96323.88;5100316;28;20051;-75
2022/10/29 02:41:21;;;;;;;37.03;16.45;;;;;;;9.67;63.78;96335.41;5100051;28;20070;-74
2022/10/29 02:43:47;;;;;;;37.47;18.67;;;;;;;9.61;63.50;96324.97;5071118;28;20130;-75
2022/10/29 02:46:19;;;;;;;34.97;18.38;;;;;;;9.64;63.69;96340.34;5079513;28;20035;-75
2022/10/29 02:48:44;;;;;;;36.83;19.27;;;;;;;9.54;64.05;96317.13;5061156;28;20032;-75
2022/10/29 02:51:10;;;;;;;49.35;23.38;;;;;;;9.39;63.48;96297.53;5060302;28;20024;-74
2022/10/29 02:53:36;;;;;;;45.60;22.20;;;;;;;9.45;63.49;96294.75;5078792;28;20022;-75
2022/10/29 02:56:02;;;;;;;32.83;16.58;;;;;;;9.25;63.18;96278.50;5060619;28;20032;-74
2022/10/29 02:58:27;;;;;;;45.97;18.67;;;;;;;9.31;63.34;96290.00;5078762;28;20047;-74
2022/10/29 03:00:53;;;;;;;45.13;21.98;;;;;;;9.26;63.98;96283.56;5078523;28;20043;-74
2022/10/29 03:03:19;;;;;;;39.65;21.00;;;;;;;9.26;63.67;96306.59;5060624;28;20142;-74
2022/10/29 03:05:44;;;;;;;42.63;17.35;;;;;;;9.19;63.74;96304.09;5078686;28;20059;-74
2022/10/29 03:08:10;;;;;;;40.10;16.55;;;;;;;8.80;64.26;96271.34;5059392;28;20118;-74
2022/10/29 03:10:35;;;;;;;37.20;16.73;;;;;;;9.01;63.91;96287.59;5078439;28;20171;-76
2022/10/29 03:13:01;;;;;;;33.00;17.30;;;;;;;9.18;63.77;96306.97;5079052;28;20035;-74
2022/10/29 03:15:27;;;;;;;33.85;16.10;;;;;;;9.23;63.56;96312.38;5078451;28;20039;-74
2022/10/29 03:17:52;;;;;;;34.47;17.02;;;;;;;9.21;64.09;96315.25;5079176;28;20032;-74
2022/10/29 03:20:18;;;;;;;40.00;15.90;;;;;;;9.17;64.04;96311.44;5078767;28;20028;-73
2022/10/29 03:22:44;;;;;;;33.05;15.20;;;;;;;9.13;63.72;96289.16;5079027;28;20060;-73
2022/10/29 03:25:09;;;;;;;31.98;14.75;;;;;;;9.00;64.45;96281.50;5078062;28;20114;-74
2022/10/29 03:27:42;;;;;;;35.83;15.25;;;;;;;9.15;63.92;96310.91;5077799;28;20042;-74
2022/10/29 03:30:12;;;;;;;32.13;15.88;;;;;;;9.20;64.00;96318.13;5078141;28;20044;-74
2022/10/29 03:32:45;;;;;;;39.60;16.38;;;;;;;9.01;63.63;96290.22;5059884;28;20036;-74
2022/10/29 03:35:12;;;;;;;32.15;16.10;;;;;;;8.95;63.71;96284.06;5078128;28;20036;-74
2022/10/29 03:37:38;;;;;;;25.83;14.30;;;;;;;8.99;63.55;96281.75;5059504;28;20070;-75
2022/10/29 03:40:05;;;;;;;31.27;15.30;;;;;;;9.21;64.39;96322.38;5072895;28;20032;-74
2022/10/29 03:42:30;;;;;;;30.65;16.83;;;;;;;9.01;64.21;96306.09;5098587;28;20034;-74
2022/10/29 03:45:00;;;;;;;31.50;17.10;;;;;;;9.19;64.33;96322.63;5099181;27;20043;-74
2022/10/29 03:47:27;;;;;;;33.15;17.17;;;;;;;9.17;63.80;96327.34;5119707;27;20027;-74
2022/10/29 03:49:53;;;;;;;29.08;17.10;;;;;;;9.18;64.34;96323.66;5115997;27;20031;-74
2022/10/29 03:52:19;;;;;;;37.30;18.60;;;;;;;8.69;63.81;96261.63;5083108;27;20065;-74
2022/10/29 03:54:44;;;;;;;39.97;20.92;;;;;;;9.18;63.58;96326.28;5100212;27;20035;-74
2022/10/29 03:57:10;;;;;;;39.00;19.10;;;;;;;8.67;63.34;96244.38;5099708;27;20031;-74
2022/10/29 03:59:35;;;;;;;36.83;19.30;;;;;;;8.80;64.08;96268.69;5118754;27;20031;-74
2022/10/29 04:02:01;;;;;;;38.65;18.67;;;;;;;8.75;63.89;96265.16;5099275;27;20052;-73
2022/10/29 04:04:26;;;;;;;39.22;19.38;;;;;;;9.03;64.12;96326.00;5099763;27;20038;-74
2022/10/29 04:06:52;;;;;;;42.28;17.58;;;;;;;9.08;63.63;96331.38;5089957;28;20578;-74
2022/10/29 04:09:17;;;;;;;35.33;17.17;;;;;;;8.58;63.88;96245.78;5115785;27;20750;-74
2022/10/29 04:11:42;;;;;;;39.78;18.63;;;;;;;8.11;64.19;96196.44;5087238;28;20118;-74
2022/10/29 04:14:08;;;;;;;33.55;19.17;;;;;;;8.91;64.34;96322.63;5079603;28;20042;-73
2022/10/29 04:16:34;;;;;;;35.28;18.85;;;;;;;8.21;64.64;96226.75;5092015;27;20114;-74
2022/10/29 04:18:59;;;;;;;33.47;17.20;;;;;;;8.84;64.57;96332.53;5085050;28;20038;-73
2022/10/29 04:21:25;;;;;;;38.20;18.92;;;;;;;8.79;64.32;96341.16;5097338;28;20030;-74
2022/10/29 04:23:50;;;;;;;40.28;22.55;;;;;;;8.16;64.91;96245.16;5097854;28;20040;-74
2022/10/29 04:26:16;;;;;;;36.83;20.85;;;;;;;8.62;64.31;96315.69;5097085;27;20484;-74
2022/10/29 04:28:41;;;;;;;46.63;22.45;;;;;;;8.32;64.35;96271.69;5104838;27;20042;-74
2022/10/29 04:31:10;;;;;;;36.10;18.48;;;;;;;8.69;65.10;96340.94;5099682;28;20180;-74
2022/10/29 04:33:36;;;;;;;57.88;25.58;;;;;;;8.33;64.73;96293.63;5118414;27;20033;-74
2022/10/29 04:36:02;;;;;;;122.63;44.42;;;;;;;8.58;64.54;96335.66;5113435;27;20157;-74
2022/10/29 04:38:27;;;;;;;332.15;120.68;;;;;;;8.30;64.84;96283.50;5097708;28;20050;-74
2022/10/29 04:40:56;;;;;;;231.98;100.70;;;;;;;8.30;64.35;96288.78;5097514;28;20050;-74
2022/10/29 04:43:22;;;;;;;79.50;38.22;;;;;;;8.65;64.56;96345.09;5078628;28;20157;-74
2022/10/29 04:45:55;;;;;;;47.13;23.35;;;;;;;8.24;64.47;96295.00;5084405;28;20066;-74
2022/10/29 04:48:21;;;;;;;41.05;21.10;;;;;;;8.45;64.98;96331.44;5079126;28;20031;-74
2022/10/29 04:50:47;;;;;;;42.80;18.80;;;;;;;8.63;64.80;96346.34;5097683;28;20043;-74
2022/10/29 04:53:13;;;;;;;42.20;20.75;;;;;;;8.52;64.89;96337.41;5078895;28;20032;-74
2022/10/29 04:55:39;;;;;;;46.55;22.45;;;;;;;8.48;64.97;96328.31;5097913;28;20487;-74
2022/10/29 04:58:06;;;;;;;53.53;25.48;;;;;;;8.64;65.54;96346.13;5114282;28;20035;-73
2022/10/29 05:00:32;;;;;;;41.55;23.08;;;;;;;8.30;65.10;96294.88;5118034;28;20112;-74
2022/10/29 05:02:58;;;;;;;36.22;19.58;;;;;;;8.55;64.86;96336.94;5099568;28;20039;-75
2022/10/29 05:05:24;;;;;;;38.50;17.27;;;;;;;8.57;64.75;96339.34;5097973;28;20043;-74
2022/10/29 05:07:59;;;;;;;35.22;18.38;;;;;;;8.20;64.50;96286.72;5088094;28;20172;-74
2022/10/29 05:10:28;;;;;;;30.13;15.85;;;;;;;8.17;64.93;96281.09;5079575;28;20114;-74
2022/10/29 05:13:06;;;;;;;38.97;17.08;;;;;;;8.36;64.86;96309.03;5096988;28;20792;-74
2022/10/29 05:15:31;;;;;;;34.03;16.23;;;;;;;8.25;64.97;96292.09;5078882;28;20093;-74
2022/10/29 05:17:57;;;;;;;44.35;17.38;;;;;;;8.02;64.92;96257.78;5087830;28;20378;-74
2022/10/29 05:20:24;;;;;;;33.17;17.60;;;;;;;8.39;65.20;96313.88;5097552;28;20564;-74
2022/10/29 05:22:49;;;;;;;40.25;18.08;;;;;;;8.52;64.91;96346.16;5091779;28;20137;-75
2022/10/29 05:25:15;;;;;;;36.13;15.93;;;;;;;8.66;65.04;96351.19;5083501;28;20042;-75
2022/10/29 05:27:40;;;;;;;44.03;18.08;;;;;;;8.42;65.04;96308.91;5094781;28;20038;-74
2022/10/29 05:30:07;;;;;;;35.33;16.98;;;;;;;8.69;65.15;96346.25;5082448;28;20042;-74
2022/10/29 05:32:32;;;;;;;40.63;20.48;;;;;;;8.53;64.99;96315.22;5101274;28;20111;-74
2022/10/29 05:35:00;;;;;;;41.88;20.60;;;;;;;8.63;65.37;96333.13;5100738;27;20829;-74
2022/10/29 05:37:26;;;;;;;46.47;23.20;;;;;;;8.78;64.65;96355.41;5111050;27;20114;-75
2022/10/29 05:39:55;;;;;;;50.13;23.35;;;;;;;8.62;64.82;96331.53;5081836;28;20027;-74
2022/10/29 05:42:21;;;;;;;57.53;23.08;;;;;;;8.59;64.98;96319.56;5100676;28;20401;-74
2022/10/29 05:44:46;;;;;;;44.90;21.38;;;;;;;8.62;65.30;96320.97;5081218;28;20047;-73
2022/10/29 05:47:12;;;;;;;59.28;21.67;;;;;;;8.85;65.08;96373.78;5082416;28;20039;-76
2022/10/29 05:49:37;;;;;;;49.08;21.77;;;;;;;8.44;65.26;96290.19;5082075;28;20475;-76
2022/10/29 05:52:03;;;;;;;52.92;23.10;;;;;;;8.39;65.06;96279.50;5081494;28;20800;-76
2022/10/29 05:54:28;;;;;;;52.33;21.38;;;;;;;8.63;64.84;96310.13;5110766;27;20035;-76
2022/10/29 05:56:54;;;;;;;49.33;22.90;;;;;;;9.01;65.12;96366.97;5121197;27;20377;-73
2022/10/29 05:59:19;;;;;;;63.88;22.83;;;;;;;9.09;64.98;96366.59;5120282;27;20027;-74
2022/10/29 06:01:44;;;;;;;55.55;20.50;;;;;;;9.06;64.91;96377.66;5088716;28;20046;-74
2022/10/29 06:04:10;;;;;;;58.70;21.10;;;;;;;8.97;64.72;96352.59;5100379;28;20040;-74
2022/10/29 06:06:35;;;;;;;47.58;19.02;;;;;;;8.28;64.35;96232.72;5098175;27;20050;-74
2022/10/29 06:09:01;;;;;;;34.08;17.33;;;;;;;9.22;64.37;96372.44;5103414;27;20856;-74
2022/10/29 06:11:26;;;;;;;39.88;17.88;;;;;;;8.89;64.22;96322.03;5091610;27;20031;-74
2022/10/29 06:13:55;;;;;;;40.10;16.80;;;;;;;9.14;63.78;96351.66;5101205;27;20512;-73
2022/10/29 06:16:21;;;;;;;36.40;16.13;;;;;;;9.15;63.73;96366.50;5081379;28;20046;-74
2022/10/29 06:18:47;;;;;;;45.83;16.83;;;;;;;9.31;63.43;96378.16;5081326;28;20498;-74
2022/10/29 06:21:12;;;;;;;50.35;17.80;;;;;;;9.31;63.13;96369.44;5081113;28;20122;-75
2022/10/29 06:23:38;;;;;;;42.05;19.38;;;;;;;9.04;63.20;96324.97;5117378;27;20114;-73
2022/10/29 06:26:03;;;;;;;43.33;17.67;;;;;;;9.47;62.90;96390.63;5120265;27;20653;-74
2022/10/29 06:28:29;;;;;;;34.97;19.55;;;;;;;9.33;62.40;96356.75;5099869;28;20070;-74
2022/10/29 06:30:54;;;;;;;35.75;18.83;;;;;;;9.26;62.59;96356.88;5099816;28;20081;-75
2022/10/29 06:33:20;;;;;;;38.53;20.30;;;;;;;9.26;62.59;96354.22;5100007;28;20112;-74
2022/10/29 06:35:46;;;;;;;36.97;19.40;;;;;;;9.34;62.67;96347.75;5100033;28;20348;-75
2022/10/29 06:38:12;;;;;;;40.55;19.90;;;;;;;9.48;62.37;96379.00;5099694;28;20032;-75
2022/10/29 06:40:39;;;;;;;47.67;21.23;;;;;;;9.00;62.80;96296.59;5098717;28;20584;-74
2022/10/29 06:43:07;;;;;;;49.10;21.98;;;;;;;9.57;62.70;96374.94;5080871;28;20067;-74
2022/10/29 06:45:33;;;;;;;43.45;20.60;;;;;;;9.50;62.57;96366.34;5099013;28;20040;-74
2022/10/29 06:47:59;;;;;;;49.67;21.92;;;;;;;9.71;61.90;96379.94;5081137;28;20047;-74
2022/10/29 06:50:25;;;;;;;44.20;21.02;;;;;;;9.56;62.37;96362.72;5093475;27;20035;-75
2022/10/29 06:52:59;;;;;;;40.72;20.75;;;;;;;9.74;61.75;96387.41;5106031;27;20081;-74
2022/10/29 06:55:25;;;;;;;47.05;21.70;;;;;;;9.53;61.86;96344.69;5080892;28;20023;-74
2022/10/29 06:58:02;;;;;;;46.90;22.08;;;;;;;9.76;62.06;96378.19;5099681;28;20028;-78
2022/10/29 07:00:30;;;;;;;47.75;22.30;;;;;;;9.80;61.55;96383.81;5080925;28;20039;-76
2022/10/29 07:02:56;;;;;;;58.20;23.02;;;;;;;9.82;62.36;96381.72;5063797;28;20134;-75
2022/10/29 07:05:23;;;;;;;45.63;21.30;;;;;;;9.70;62.31;96384.44;5099498;28;20039;-76
2022/10/29 07:07:48;;;;;;;45.47;22.30;;;;;;;9.43;61.99;96331.25;5080583;28;20136;-76
2022/10/29 07:10:15;;;;;;;42.70;21.13;;;;;;;9.48;62.19;96325.25;5098930;28;20031;-75
2022/10/29 07:12:41;;;;;;;38.67;19.67;;;;;;;9.88;61.64;96378.13;5098910;28;20823;-75
2022/10/29 07:15:07;;;;;;;42.80;21.42;;;;;;;9.78;61.68;96356.75;5099398;28;20450;-75
2022/10/29 07:17:33;;;;;;;47.45;19.95;;;;;;;9.80;61.93;96347.53;5080349;28;20115;-76
2022/10/29 07:19:58;;;;;;;43.33;20.92;;;;;;;9.49;61.92;96306.47;5079808;28;20031;-75
2022/10/29 07:22:24;;;;;;;38.33;19.67;;;;;;;9.97;61.56;96368.72;5099566;27;20031;-75
2022/10/29 07:24:49;;;;;;;37.72;18.77;;;;;;;10.01;61.76;96365.34;5102950;27;20046;-75
2022/10/29 07:27:14;;;;;;;36.40;18.88;;;;;;;9.94;61.92;96366.56;5096501;27;20042;-75
2022/10/29 07:29:40;;;;;;;32.30;18.15;;;;;;;9.89;62.09;96377.88;5100254;27;20191;-75
2022/10/29 07:32:05;;;;;;;30.08;16.75;;;;;;;9.93;62.74;96394.09;5118557;27;20027;-75
2022/10/29 07:34:31;;;;;;;35.28;17.10;;;;;;;9.88;62.87;96376.28;5119138;27;20038;-75
2022/10/29 07:36:56;;;;;;;33.75;17.30;;;;;;;9.96;61.82;96370.59;5110048;27;20080;-75
2022/10/29 07:39:22;;;;;;;34.05;15.30;;;;;;;9.99;62.94;96377.25;5080046;28;20576;-74
2022/10/29 07:41:47;;;;;;;26.85;13.90;;;;;;;10.02;62.38;96374.91;5079550;28;20119;-77
2022/10/29 07:44:13;;;;;;;33.17;13.63;;;;;;;9.86;62.75;96357.16;5109723;27;20104;-76
2022/10/29 07:46:38;;;;;;;28.02;13.50;;;;;;;9.79;62.28;96332.66;5118845;27;20031;-76
2022/10/29 07:49:04;;;;;;;36.03;15.55;;;;;;;10.02;62.11;96345.75;5103514;27;20053;-75
2022/10/29 07:51:29;;;;;;;27.92;14.20;;;;;;;10.12;61.93;96341.66;5098601;28;20924;-75
2022/10/29 07:53:54;;;;;;;35.75;14.82;;;;;;;10.45;61.01;96387.53;5114942;27;20069;-75
2022/10/29 07:56:20;;;;;;;28.17;16.17;;;;;;;10.19;61.47;96348.44;5119218;27;20043;-75
2022/10/29 07:58:45;;;;;;;27.48;15.23;;;;;;;10.29;61.40;96348.59;5099714;27;21023;-75
2022/10/29 08:01:11;;;;;;;30.85;15.60;;;;;;;10.56;61.74;96380.53;5097846;28;20036;-74
2022/10/29 08:03:36;;;;;;;26.80;14.25;;;;;;;10.43;61.34;96362.31;5098311;28;20123;-75
2022/10/29 08:06:01;;;;;;;23.85;13.63;;;;;;;10.20;61.66;96312.13;5098405;28;20127;-74
2022/10/29 08:08:27;;;;;;;34.72;15.20;;;;;;;10.33;61.53;96311.78;5079021;28;20032;-75
2022/10/29 08:10:58;;;;;;;26.27;14.05;;;;;;;10.59;61.19;96348.22;5097888;28;20833;-74
2022/10/29 08:13:23;;;;;;;30.92;14.73;;;;;;;10.83;60.62;96362.09;5086304;27;20772;-75
2022/10/29 08:15:49;;;;;;;24.50;14.23;;;;;;;10.75;60.61;96322.72;5118153;27;20034;-77
2022/10/29 08:18:16;;;;;;;30.95;14.95;;;;;;;10.90;60.83;96348.63;5090760;28;20035;-74
2022/10/29 08:20:41;;;;;;;30.40;14.20;;;;;;;10.97;61.07;96358.00;5098591;28;20114;-77
2022/10/29 08:23:07;;;;;;;26.83;13.52;;;;;;;10.82;60.83;96337.41;5079456;28;20248;-74
2022/10/29 08:25:33;;;;;;;26.75;13.82;;;;;;;10.90;60.25;96332.69;5097723;28;20040;-74
2022/10/29 08:28:03;;;;;;;28.92;15.27;;;;;;;11.08;60.68;96358.91;5098385;28;20748;-74
2022/10/29 08:30:30;;;;;;;30.30;14.73;;;;;;;10.65;60.24;96283.56;5097742;28;20090;-74
2022/10/29 08:32:56;;;;;;;28.85;14.10;;;;;;;11.25;60.24;96353.53;5098256;28;20047;-74
2022/10/29 08:35:21;;;;;;;28.67;13.32;;;;;;;10.82;59.92;96273.72;5078901;28;20485;-74
2022/10/29 08:37:47;;;;;;;33.28;14.88;;;;;;;11.19;59.36;96315.50;5098024;27;20031;-74
2022/10/29 08:40:51;;;;;;;28.33;15.35;;;;;;;11.47;60.45;96347.16;5097001;28;20032;-74
2022/10/29 08:43:25;;;;;;;37.30;14.73;;;;;;;11.49;60.07;96339.72;5097941;28;20087;-74
2022/10/29 08:45:53;;;;;;;31.42;15.77;;;;;;;11.56;59.66;96337.69;5078621;28;20035;-75
2022/10/29 08:48:37;;;;;;;37.55;16.50;;;;;;;11.64;59.69;96338.28;5079262;28;20043;-75
2022/10/29 08:51:21;;;;;;;24.98;15.07;;;;;;;11.76;58.80;96334.44;5097266;28;20039;-74
2022/10/29 08:53:49;;;;;;;30.45;14.27;;;;;;;11.73;58.48;96324.28;5096808;28;20118;-74
2022/10/29 08:56:20;;;;;;;37.28;16.90;;;;;;;11.43;59.04;96277.00;5078902;28;20039;-74
2022/10/29 08:59:05;;;;;;;29.48;15.63;;;;;;;11.51;58.63;96271.22;5097256;28;20420;-74
2022/10/29 09:01:31;;;;;;;35.65;16.13;;;;;;;11.82;58.76;96296.22;5097210;28;20042;-74
2022/10/29 09:03:56;;;;;;;35.97;18.00;;;;;;;11.71;58.29;96272.44;5104900;27;20603;-74
2022/10/29 09:06:34;;;;;;;37.22;18.13;;;;;;;12.07;58.59;96322.19;5121052;27;20111;-74
2022/10/29 09:09:16;;;;;;;32.20;17.85;;;;;;;12.15;58.10;96319.06;5104117;27;20513;-74
2022/10/29 09:11:51;;;;;;;34.50;18.02;;;;;;;12.22;57.92;96318.84;5103966;27;20102;-75
2022/10/29 09:14:19;;;;;;;28.38;16.30;;;;;;;12.30;57.39;96319.16;5122254;27;20049;-74
2022/10/29 09:16:54;;;;;;;30.95;17.50;;;;;;;12.37;57.27;96313.63;5102785;27;20031;-74
2022/10/29 09:19:38;;;;;;;33.85;17.23;;;;;;;12.12;57.03;96269.06;5122479;27;20031;-74
2022/10/29 09:22:21;;;;;;;31.08;16.73;;;;;;;12.12;56.88;96254.97;5121756;27;20031;-74
2022/10/29 09:25:01;;;;;;;31.77;14.93;;;;;;;12.34;56.39;96274.25;5112704;27;20490;-74
2022/10/29 09:27:48;;;;;;;33.10;15.02;;;;;;;12.71;56.33;96306.09;5101072;28;20582;-73
2022/10/29 09:30:17;;;;;;;30.80;14.90;;;;;;;12.75;56.40;96305.31;5101902;28;20057;-75
2022/10/29 09:32:55;;;;;;;33.03;15.65;;;;;;;12.76;56.11;96290.94;5083084;28;20039;-74
2022/10/29 09:35:21;;;;;;;20.88;13.32;;;;;;;12.84;55.63;96281.66;5099384;27;20027;-75
2022/10/29 09:38:07;;;;;;;34.00;14.30;;;;;;;12.66;55.97;96237.66;5081438;28;20028;-74
2022/10/29 09:40:36;;;;;;;29.98;13.45;;;;;;;13.04;56.38;96297.72;5082184;28;20035;-74
2022/10/29 09:43:14;;;;;;;32.13;14.13;;;;;;;12.94;55.91;96257.75;5100480;28;20067;-75
2022/10/29 09:45:49;;;;;;;31.90;14.30;;;;;;;13.19;55.08;96282.88;5113653;27;20043;-75
2022/10/29 09:48:39;;;;;;;32.38;13.95;;;;;;;13.05;54.48;96255.88;5120768;27;20580;-74
2022/10/29 09:51:16;;;;;;;23.73;12.57;;;;;;;13.53;55.01;96282.13;5100895;27;20038;-75
2022/10/29 09:53:42;;;;;;;20.33;11.75;;;;;;;14.46;52.73;96268.50;5099945;28;20027;-74
2022/10/29 09:56:08;;;;;;;25.35;12.00;;;;;;;15.58;49.64;96267.97;5104515;27;20035;-75
2022/10/29 09:58:40;;;;;;;21.13;11.80;;;;;;;16.69;47.07;96223.34;5102287;27;20031;-75
2022/10/29 10:01:06;;;;;;;20.83;9.75;;;;;;;17.89;43.61;96262.13;5102621;27;20050;-75
2022/10/29 10:03:44;;;;;;;18.42;9.55;;;;;;;19.39;40.85;96253.38;5120398;27;20023;-75
2022/10/29 10:06:15;;;;;;;29.85;10.70;;;;;;;20.59;38.63;96253.44;5120515;27;20452;-74
2022/10/29 10:09:07;;;;;;;14.82;9.65;;;;;;;21.54;36.10;96247.19;5102143;27;20042;-75
2022/10/29 10:11:51;;;;;;;20.17;9.30;;;;;;;22.13;35.20;96246.66;5098851;27;20130;-76
2022/10/29 10:14:21;;;;;;;20.92;9.35;;;;;;;22.78;34.06;96224.72;5081516;28;20481;-75
2022/10/29 10:16:56;;;;;;;17.90;9.32;;;;;;;22.65;33.26;96198.66;5086072;27;20833;-75
2022/10/29 10:19:28;;;;;;;17.05;8.85;;;;;;;23.29;32.51;96226.31;5094118;28;20042;-75
2022/10/29 10:21:58;;;;;;;;;;;;;;;23.28;32.23;96218.50;5100434;28;20115;-75
2022/10/29 10:24:42;;;;;;;16.52;9.27;;;;;;;22.91;32.41;96176.91;5092726;27;19953;-75
2022/10/29 10:27:16;;;;;;;18.83;8.57;;;;;;;22.85;33.07;96206.06;5120586;27;20092;-75
2022/10/29 10:29:42;;;;;;;18.42;8.57;;;;;;;22.61;33.18;96171.47;5101516;27;20117;-74
2022/10/29 10:32:15;;;;;;;25.13;9.10;;;;;;;22.80;33.46;96191.94;5099540;28;20111;-75
2022/10/29 10:34:41;;;;;;;22.50;9.07;;;;;;;22.21;33.99;96170.22;5080570;28;20023;-76
2022/10/29 10:37:16;;;;;;;20.77;8.60;;;;;;;21.84;34.37;96177.91;5102837;27;20031;-76
2022/10/29 10:39:43;;;;;;;19.58;8.65;;;;;;;21.90;34.58;96190.13;5113298;27;20872;-75
2022/10/29 10:42:24;;;;;;;16.63;7.95;;;;;;;21.69;34.83;96191.91;5081091;28;20850;-76
2022/10/29 10:44:53;;;;;;;12.30;7.57;;;;;;;21.55;35.09;96183.19;5064539;28;20051;-75
2022/10/29 10:47:22;;;;;;;16.58;7.55;;;;;;;21.39;35.40;96120.81;5094617;28;20082;-76
2022/10/29 10:49:48;;;;;;;14.38;7.05;;;;;;;21.80;34.91;96157.28;5094230;28;20494;-76
2022/10/29 10:52:26;;;;;;;13.88;6.72;;;;;;;21.78;35.12;96154.09;5060649;28;20127;-75
2022/10/29 10:54:54;;;;;;;17.15;5.40;;;;;;;21.76;35.29;96170.63;5079037;28;20089;-76
2022/10/29 10:57:24;;;;;;;11.32;4.70;;;;;;;21.76;34.95;96157.13;5062992;28;20809;-78
2022/10/29 11:00:00;;;;;;;6.90;4.22;;;;;;;21.95;34.93;96154.06;5099893;28;20862;-78
2022/10/29 11:02:54;;;;;;;9.30;5.25;;;;;;;22.01;34.73;96157.41;5074200;28;20126;-76
2022/10/29 11:05:23;;;;;;;9.93;4.07;;;;;;;21.44;35.43;96096.34;5061129;28;20142;-77
2022/10/29 11:08:07;;;;;;;5.55;3.67;;;;;;;21.67;35.36;96145.53;5079859;28;20036;-76
2022/10/29 11:10:55;;;;;;;11.07;3.80;;;;;;;21.48;35.05;96088.44;5078248;28;20045;-76
2022/10/29 11:13:24;;;;;;;9.07;4.00;;;;;;;21.52;35.29;96127.16;5059837;28;20036;-76
2022/10/29 11:16:14;;;;;;;17.38;4.53;;;;;;;21.69;35.24;96132.53;5093505;28;20745;-76
2022/10/29 11:19:10;;;;;;;7.35;3.35;;;;;;;21.75;34.87;96125.84;5078741;28;20056;-76
2022/10/29 11:21:46;;;;;;;7.88;3.42;;;;;;;22.05;34.91;96094.31;5078457;28;20032;-76
2022/10/29 11:24:19;;;;;;;11.57;4.80;;;;;;;22.09;34.52;96068.25;5077351;28;20036;-75
2022/10/29 11:26:58;;;;;;;12.05;5.68;;;;;;;22.37;34.63;96092.09;5078364;28;20036;-75
2022/10/29 11:29:30;;;;;;;10.80;4.13;;;;;;;22.78;34.07;96104.94;5077747;28;20123;-75
2022/10/29 11:32:18;;;;;;;12.50;4.78;;;;;;;22.83;33.30;96099.31;5078091;28;20028;-74
2022/10/29 11:35:08;;;;;;;9.77;4.55;;;;;;;22.62;33.85;96073.03;5077842;28;20442;-75
2022/10/29 11:37:49;;;;;;;5.90;3.67;;;;;;;23.02;33.06;96086.16;5078713;28;20036;-75
2022/10/29 11:40:22;;;;;;;10.57;4.43;;;;;;;23.22;33.04;96092.66;5059241;28;20043;-76
2022/10/29 11:42:48;;;;;;;15.38;3.72;;;;;;;23.29;32.40;96074.75;5078211;28;20031;-76
2022/10/29 11:45:19;;;;;;;10.32;3.80;;;;;;;23.62;32.54;96085.63;5079093;28;20043;-75
2022/10/29 11:47:48;;;;;;;;;;;;;;;23.80;32.78;96076.16;5081232;27;20024;-75